Kamari — D5DX7 — position and weather

sailwx.info

Track history (hours):
 
Tides and Currents Weather Stations Pressure Air Temp Water Temp Dewpoint Dewpoint Depression Visibility Wind Speed Wind Dir Waves Ship Positions

Kamari

Last reported at 2018-Feb-13 07:05 UTC. Time now 2018-Feb-18 03:30 UTC.
Position N 01°19' E 103°20'.

Length 270 m.

Type: Ship. MMSI: 636015996.

Date/timePositionNaut miles runAvg speedWind from/ knotsBaromVisibWave heightAir tempDewpointWater temp
2018-Feb-13 07:05N 01°19' E 103°20'213.6
2018-Feb-13 06:58N 01°17' E 103°22'612.9
2018-Feb-13 06:28N 01°14' E 103°27'611.9
2018-Feb-13 05:59N 01°13' E 103°33'5 9.7
2018-Feb-13 05:31N 01°12' E 103°37'2 4.3
2018-Feb-13 05:00N 01°13' E 103°39'0 0.6
2018-Feb-13 04:25N 01°13' E 103°39'0 0.1
2018-Feb-13 03:49N 01°13' E 103°39'0 0.2
2018-Feb-13 03:30N 01°13' E 103°39'0 0.1
2018-Feb-13 02:59N 01°13' E 103°39'0 0.1
2018-Feb-13 02:29N 01°13' E 103°39'0 0.1
2018-Feb-13 01:55N 01°13' E 103°39'0 0.1
2018-Feb-13 01:30N 01°13' E 103°39'0 0.1
2018-Feb-13 00:56N 01°13' E 103°39'0 0.1
2018-Feb-13 00:14N 01°13' E 103°39'0 0.1
2018-Feb-12 23:52N 01°13' E 103°39'0 0.1
2018-Feb-12 23:25N 01°13' E 103°39'0 0.1
2018-Feb-12 22:52N 01°13' E 103°39'0 0.1
2018-Feb-12 22:06N 01°13' E 103°39'0 0.2
2018-Feb-12 21:51N 01°13' E 103°39'0 0.3
2018-Feb-12 21:30N 01°13' E 103°39'0 0.1
2018-Feb-12 20:50N 01°13' E 103°39'0 0.1
2018-Feb-12 20:20N 01°13' E 103°39'0 0.1
2018-Feb-12 19:11N 01°13' E 103°39'0 0.0
2018-Feb-12 18:26N 01°13' E 103°39'0 0.1
2018-Feb-12 17:44N 01°13' E 103°39'0 0.1
2018-Feb-12 17:08N 01°13' E 103°39'0 0.1
2018-Feb-12 16:59N 01°13' E 103°39'0 0.0
2018-Feb-12 16:26N 01°13' E 103°39'0 0.0
2018-Feb-12 15:59N 01°13' E 103°39'0 0.0
2018-Feb-12 15:11N 01°13' E 103°39'0 0.0
2018-Feb-12 14:41N 01°13' E 103°39'0 0.1
2018-Feb-12 14:05N 01°13' E 103°39'0 0.2
2018-Feb-12 13:57N 01°13' E 103°39'0 0.1
2018-Feb-12 13:16N 01°13' E 103°39'0 0.1
2018-Feb-12 12:55N 01°13' E 103°39'0 0.1
2018-Feb-12 12:25N 01°13' E 103°39'0 0.2
2018-Feb-12 11:58N 01°13' E 103°39'0 0.0
2018-Feb-12 11:25N 01°13' E 103°39'0 0.0
2018-Feb-12 10:52N 01°13' E 103°39'0 0.2
2018-Feb-12 10:25N 01°13' E 103°39'0 0.3
2018-Feb-12 09:58N 01°13' E 103°39'0 0.1
2018-Feb-12 09:26N 01°13' E 103°39'0 0.0
2018-Feb-12 08:59N 01°13' E 103°39'0 0.0
2018-Feb-12 08:29N 01°13' E 103°39'0 0.2
2018-Feb-12 07:54N 01°13' E 103°39'0 0.1
2018-Feb-12 07:24N 01°13' E 103°39'0 0.2
2018-Feb-12 07:00N 01°13' E 103°39'0 0.1
2018-Feb-12 06:29N 01°13' E 103°39'0 0.4
2018-Feb-12 05:59N 01°13' E 103°39'0 0.1
2018-Feb-12 05:12N 01°13' E 103°39'0 0.1
2018-Feb-12 04:58N 01°13' E 103°39'0 0.1
2018-Feb-12 04:28N 01°13' E 103°39'0 0.3
2018-Feb-12 03:55N 01°13' E 103°39'0 0.1
2018-Feb-12 03:19N 01°13' E 103°39'0 0.3
2018-Feb-12 02:57N 01°13' E 103°39'0 0.0
2018-Feb-12 02:21N 01°13' E 103°39'0 0.2
2018-Feb-12 01:59N 01°13' E 103°39'0 0.0
2018-Feb-12 01:22N 01°13' E 103°39'0 0.0
2018-Feb-12 00:58N 01°13' E 103°39'0 0.2
2018-Feb-12 00:30N 01°13' E 103°39'1 2.4
2018-Feb-12 00:00N 01°13' E 103°40'1 2.7
2018-Feb-11 23:30N 01°14' E 103°41'0 0.0
2018-Feb-11 23:00N 01°14' E 103°41'0 0.0
2018-Feb-11 22:29N 01°14' E 103°41'0 0.0
2018-Feb-11 21:51N 01°14' E 103°41'0 0.0
2018-Feb-11 21:30N 01°14' E 103°41'0 0.0
2018-Feb-11 21:00N 01°14' E 103°41'0 0.0
2018-Feb-11 20:15N 01°14' E 103°41'0 0.0
2018-Feb-11 19:57N 01°14' E 103°41'  
2018-Feb-09 05:00N 01°14' E 103°41'0 0.0
2018-Feb-09 04:30N 01°14' E 103°41'2 0.1
2018-Feb-08 01:28N 01°13' E 103°39'0 0.1
2018-Feb-08 00:59N 01°13' E 103°39'0 0.0
2018-Feb-08 00:30N 01°13' E 103°39'0 0.1
2018-Feb-07 23:54N 01°13' E 103°39'0 0.0
2018-Feb-07 23:24N 01°13' E 103°39'0 0.0
2018-Feb-07 23:00N 01°13' E 103°39'0 0.0
2018-Feb-07 22:27N 01°13' E 103°39'0 0.0
2018-Feb-07 21:57N 01°13' E 103°39'0 0.0
2018-Feb-07 21:30N 01°13' E 103°39'  
Track history (hours):
 
Tides and Currents Weather Stations Pressure Air Temp Water Temp Dewpoint Dewpoint Depression Visibility Wind Speed Wind Dir Waves Ship Positions

Kamari

Last reported at 2018-Feb-13 07:05 UTC. Time now 2018-Feb-18 03:30 UTC.
Position N 01°19' E 103°20'.

Length 270 m.

Type: Ship. MMSI: 636015996.

Date/timePositionNaut miles runAvg speedWind from/ knotsBaromVisibWave heightAir tempDewpointWater temp
2018-Feb-13 07:05N 01°19' E 103°20'213.6
2018-Feb-13 06:58N 01°17' E 103°22'612.9
2018-Feb-13 06:28N 01°14' E 103°27'611.9
2018-Feb-13 05:59N 01°13' E 103°33'5 9.7
2018-Feb-13 05:31N 01°12' E 103°37'2 4.3
2018-Feb-13 05:00N 01°13' E 103°39'0 0.6
2018-Feb-13 04:25N 01°13' E 103°39'0 0.1
2018-Feb-13 03:49N 01°13' E 103°39'0 0.2
2018-Feb-13 03:30N 01°13' E 103°39'0 0.1
2018-Feb-13 02:59N 01°13' E 103°39'0 0.1
2018-Feb-13 02:29N 01°13' E 103°39'0 0.1
2018-Feb-13 01:55N 01°13' E 103°39'0 0.1
2018-Feb-13 01:30N 01°13' E 103°39'0 0.1
2018-Feb-13 00:56N 01°13' E 103°39'0 0.1
2018-Feb-13 00:14N 01°13' E 103°39'0 0.1
2018-Feb-12 23:52N 01°13' E 103°39'0 0.1
2018-Feb-12 23:25N 01°13' E 103°39'0 0.1
2018-Feb-12 22:52N 01°13' E 103°39'0 0.1
2018-Feb-12 22:06N 01°13' E 103°39'0 0.2
2018-Feb-12 21:51N 01°13' E 103°39'0 0.3
2018-Feb-12 21:30N 01°13' E 103°39'0 0.1
2018-Feb-12 20:50N 01°13' E 103°39'0 0.1
2018-Feb-12 20:20N 01°13' E 103°39'0 0.1
2018-Feb-12 19:11N 01°13' E 103°39'0 0.0
2018-Feb-12 18:26N 01°13' E 103°39'0 0.1
2018-Feb-12 17:44N 01°13' E 103°39'0 0.1
2018-Feb-12 17:08N 01°13' E 103°39'0 0.1
2018-Feb-12 16:59N 01°13' E 103°39'0 0.0
2018-Feb-12 16:26N 01°13' E 103°39'0 0.0
2018-Feb-12 15:59N 01°13' E 103°39'0 0.0
2018-Feb-12 15:11N 01°13' E 103°39'0 0.0
2018-Feb-12 14:41N 01°13' E 103°39'0 0.1
2018-Feb-12 14:05N 01°13' E 103°39'0 0.2
2018-Feb-12 13:57N 01°13' E 103°39'0 0.1
2018-Feb-12 13:16N 01°13' E 103°39'0 0.1
2018-Feb-12 12:55N 01°13' E 103°39'0 0.1
2018-Feb-12 12:25N 01°13' E 103°39'0 0.2
2018-Feb-12 11:58N 01°13' E 103°39'0 0.0
2018-Feb-12 11:25N 01°13' E 103°39'0 0.0
2018-Feb-12 10:52N 01°13' E 103°39'0 0.2
2018-Feb-12 10:25N 01°13' E 103°39'0 0.3
2018-Feb-12 09:58N 01°13' E 103°39'0 0.1
2018-Feb-12 09:26N 01°13' E 103°39'0 0.0
2018-Feb-12 08:59N 01°13' E 103°39'0 0.0
2018-Feb-12 08:29N 01°13' E 103°39'0 0.2
2018-Feb-12 07:54N 01°13' E 103°39'0 0.1
2018-Feb-12 07:24N 01°13' E 103°39'0 0.2
2018-Feb-12 07:00N 01°13' E 103°39'0 0.1
2018-Feb-12 06:29N 01°13' E 103°39'0 0.4
2018-Feb-12 05:59N 01°13' E 103°39'0 0.1
2018-Feb-12 05:12N 01°13' E 103°39'0 0.1
2018-Feb-12 04:58N 01°13' E 103°39'0 0.1
2018-Feb-12 04:28N 01°13' E 103°39'0 0.3
2018-Feb-12 03:55N 01°13' E 103°39'0 0.1
2018-Feb-12 03:19N 01°13' E 103°39'0 0.3
2018-Feb-12 02:57N 01°13' E 103°39'0 0.0
2018-Feb-12 02:21N 01°13' E 103°39'0 0.2
2018-Feb-12 01:59N 01°13' E 103°39'0 0.0
2018-Feb-12 01:22N 01°13' E 103°39'0 0.0
2018-Feb-12 00:58N 01°13' E 103°39'0 0.2
2018-Feb-12 00:30N 01°13' E 103°39'1 2.4
2018-Feb-12 00:00N 01°13' E 103°40'1 2.7
2018-Feb-11 23:30N 01°14' E 103°41'0 0.0
2018-Feb-11 23:00N 01°14' E 103°41'0 0.0
2018-Feb-11 22:29N 01°14' E 103°41'0 0.0
2018-Feb-11 21:51N 01°14' E 103°41'0 0.0
2018-Feb-11 21:30N 01°14' E 103°41'0 0.0
2018-Feb-11 21:00N 01°14' E 103°41'0 0.0
2018-Feb-11 20:15N 01°14' E 103°41'0 0.0
2018-Feb-11 19:57N 01°14' E 103°41'  
2018-Feb-09 05:00N 01°14' E 103°41'0 0.0
2018-Feb-09 04:30N 01°14' E 103°41'2 0.1
2018-Feb-08 01:28N 01°13' E 103°39'0 0.1
2018-Feb-08 00:59N 01°13' E 103°39'0 0.0
2018-Feb-08 00:30N 01°13' E 103°39'0 0.1
2018-Feb-07 23:54N 01°13' E 103°39'0 0.0
2018-Feb-07 23:24N 01°13' E 103°39'0 0.0
2018-Feb-07 23:00N 01°13' E 103°39'0 0.0
2018-Feb-07 22:27N 01°13' E 103°39'0 0.0
2018-Feb-07 21:57N 01°13' E 103°39'0 0.0
2018-Feb-07 21:30N 01°13' E 103°39'  

Dump ship's entire track history